NOAA Web Site Link Tides and Currents Home Page Transparent placeholder image

PORTS® Data Listing: 8452660 Newport, RI

CO-OPS RAW PORTS DATA

************************      PRELIMINARY DATA      ************************** 

     THIS RAW DATA HAS NOT BEEN SUBJECT TO THE NATIONAL OCEAN SERVICE'S        
     QUALITY CONTROL OR QUALITY ASSURANCE PROCEDURES AND DOES NOT MEET         
     THE CRITERIA AND STANDARDS OF OFFICIAL NATIONAL OCEAN SERVICE             
     DATA.  IT IS RELEASED FOR LIMITED PUBLIC USE AS PRELIMINARY DATA TO       
     BE USED ONLY WITH APPROPRIATE CAUTION.                                    

************************      PRELIMINARY DATA      ************************** 


       CD   -   Calendar date
       T    -   Time
       TZ   -   Timezone
       PW   -   Predicted water level (feet above MLLW)
       OW   -   Observed water level (feet above MLLW)
       WS   -   Wind speed (knots)
       WD   -   Wind direction (degrees true)
       WG   -   Wind gust (knots)
       AT   -   Air temperature (degrees farenheit)
       WT   -   Water temperature (degrees farenheit)
       AP   -   Air pressure (millibars)
       SA   -   Salinty (PSU - Practical Salinity Units)
       SG   -   Specific gravity
       RH   -   Relative humidity
       AG   -   Air gap (feet)
       VI   -   Visibility (nautical miles)

       ** NOTE **
       A variable that has its data fields filled with "9"s, indicates that
       data was not collected for that sample period.
       **********


STATION NAME: Newport (8452660)
****************************************************************************************************
    CD       T    TZ    PW     OW    WS   WD   WG    AT    WT    AP    SA    SG     RH    AG   VI
****************************************************************************************************
2019/07/21 11:36 EDT    3.27   3.93    4  255    7  84.2  67.3 1007.7 31.6  1.023 -99.9 -99.99 -9.99
2019/07/21 11:42 EDT    3.28   3.95    6  216    7  81.0  66.4 1007.8 31.7  1.023 -99.9 -99.99 -9.99
2019/07/21 11:48 EDT    3.27   3.92    4  207    6  80.2  66.4 1007.8 31.6  1.023 -99.9 -99.99 -9.99
2019/07/21 11:54 EDT    3.27   3.90    3  202    5  80.4  67.3 1007.6 31.6  1.023 -99.9 -99.99 -9.99
2019/07/21 12:00 EDT    3.26   3.91    4  192    5  80.2  66.6 1007.5 31.5  1.023 -99.9 -99.99 -9.99
2019/07/21 12:06 EDT    3.24   3.82    4  184    5  81.3  67.3 1007.5 31.7  1.023 -99.9 -99.99 -9.99
2019/07/21 12:12 EDT    3.22   3.82    4  198    4  81.1  66.4 1007.5 31.6  1.023 -99.9 -99.99 -9.99
2019/07/21 12:18 EDT    3.20   3.84    4  214    6  80.2  66.0 1007.4 31.7  1.023 -99.9 -99.99 -9.99
2019/07/21 12:24 EDT    3.17   3.80    6  213    9  80.8  65.7 1007.4 31.9  1.024 -99.9 -99.99 -9.99
2019/07/21 12:30 EDT    3.13   3.80    8  216   10  79.9  65.5 1007.3 31.9  1.024 -99.9 -99.99 -9.99
2019/07/21 12:36 EDT    3.10   3.73    9  217   10  78.4  65.7 1007.3 31.8  1.024 -99.9 -99.99 -9.99
2019/07/21 12:42 EDT    3.06   3.68    7  208    9  78.6  64.8 1007.3 31.9  1.024 -99.9 -99.99 -9.99
2019/07/21 12:48 EDT    3.01   3.64    7  201    9  79.2  64.8 1007.3 32.0  1.024 -99.9 -99.99 -9.99
2019/07/21 12:54 EDT    2.96   3.59    7  196    9  79.3  65.5 1007.2 31.7  1.024 -99.9 -99.99 -9.99
2019/07/21 13:00 EDT    2.91   3.53    8  203   12  78.8  65.8 1007.1 31.9  1.024 -99.9 -99.99 -9.99
2019/07/21 13:06 EDT    2.85   3.49   10  205   12  79.2  64.9 1007.1 31.6  1.024 -99.9 -99.99 -9.99
2019/07/21 13:12 EDT    2.79   3.42   10  212   11  79.2  64.0 1007.1 32.1  1.024 -99.9 -99.99 -9.99
2019/07/21 13:18 EDT    2.73   3.38    8  209   13  79.0  65.1 1007.1 31.8  1.024 -99.9 -99.99 -9.99
2019/07/21 13:24 EDT    2.66   3.35   11  210   14  79.2  65.1 1007.0 31.9  1.024 -99.9 -99.99 -9.99
2019/07/21 13:30 EDT    2.60   3.24   11  211   15  78.1  67.1 1006.9 31.7  1.023 -99.9 -99.99 -9.99
2019/07/21 13:36 EDT    2.52   3.14   12  211   13  78.6  66.2 1006.8 31.9  1.024 -99.9 -99.99 -9.99
2019/07/21 13:42 EDT    2.45   3.12   10  210   13  79.3  67.3 1006.8 31.7  1.023 -99.9 -99.99 -9.99
2019/07/21 13:48 EDT    2.37   3.08   11  208   14  79.5  67.5 1006.6 31.6  1.023 -99.9 -99.99 -9.99
2019/07/21 13:54 EDT    2.30   3.01   13  210   14  80.8  67.6 1006.7 31.6  1.023 -99.9 -99.99 -9.99
2019/07/21 14:00 EDT    2.22   2.95   13  215   17  80.2  66.4 1006.7 31.7  1.023 -99.9 -99.99 -9.99
2019/07/21 14:06 EDT    2.13   2.89   14  215   17  80.1  66.9 1006.7 31.8  1.023 -99.9 -99.99 -9.99
2019/07/21 14:12 EDT    2.05   2.76   13  214   17  79.5  67.5 1006.7 31.6  1.023 -99.9 -99.99 -9.99
2019/07/21 14:18 EDT    1.97   2.70   12  214   17  79.9  67.5 1006.6 31.6  1.023 -99.9 -99.99 -9.99
2019/07/21 14:24 EDT    1.88   2.66   14  214   16  80.4  68.0 1006.5 31.6  1.023 -99.9 -99.99 -9.99
2019/07/21 14:30 EDT    1.80   2.52   12  213   16  80.6  67.8 1006.5 31.5  1.023 -99.9 -99.99 -9.99
2019/07/21 14:36 EDT    1.72   2.44   12  212   14  81.3  67.8 1006.5 31.6  1.023 -99.9 -99.99 -9.99
2019/07/21 14:42 EDT    1.63   2.40   12  216   13  81.5  67.8 1006.5 31.6  1.023 -99.9 -99.99 -9.99
2019/07/21 14:48 EDT    1.55   2.29   11  215   13  81.9  67.8 1006.5 31.5  1.023 -99.9 -99.99 -9.99
2019/07/21 14:54 EDT    1.47   2.27   11  213   13  82.2  68.0 1006.4 31.5  1.023 -99.9 -99.99 -9.99
2019/07/21 15:00 EDT    1.39   2.22   10  215   13  82.6  68.2 1006.5 31.4  1.023 -99.9 -99.99 -9.99
2019/07/21 15:06 EDT    1.31   2.12   10  210   12  82.6  68.4 1006.6 31.4  1.023 -99.9 -99.99 -9.99
2019/07/21 15:12 EDT    1.24   2.06   11  217   12  82.0  68.7 1006.7 31.4  1.023 -99.9 -99.99 -9.99
2019/07/21 15:18 EDT    1.17   1.98   10  214   12  82.2  69.1 1006.7 31.4  1.023 -99.9 -99.99 -9.99
2019/07/21 15:24 EDT    1.10   1.88   10  219   13  82.4  69.3 1006.7 31.4  1.023 -99.9 -99.99 -9.99
2019/07/21 15:30 EDT    1.03   1.83   10  223   14  83.7  69.3 1006.6 31.4  1.023 -99.9 -99.99 -9.99
2019/07/21 15:36 EDT    0.97   1.80    9  222   14  85.8  69.3 1006.6 31.4  1.023 -99.9 -99.99 -9.99
2019/07/21 15:42 EDT    0.91   1.74    8  221   11  85.5  69.3 1006.7 31.4  1.023 -99.9 -99.99 -9.99
2019/07/21 15:48 EDT    0.86   1.65   11  230   14  87.6  69.3 1006.6 31.4  1.023 -99.9 -99.99 -9.99
2019/07/21 15:54 EDT    0.81   1.63   11  242   15  88.3  69.3 1006.6 31.4  1.023 -99.9 -99.99 -9.99
2019/07/21 16:00 EDT    0.76   1.56   13  241   14  88.0  69.4 1006.5 31.4  1.023 -99.9 -99.99 -9.99
2019/07/21 16:06 EDT    0.72   1.50   10  228   13  88.3  69.4 1006.6 31.4  1.023 -99.9 -99.99 -9.99
2019/07/21 16:12 EDT    0.68   1.45    9  209   14  87.1  69.8 1006.5 31.4  1.023 -99.9 -99.99 -9.99
2019/07/21 16:18 EDT    0.65   1.40   12  208   14  84.0  69.8 1006.5 31.4  1.023 -99.9 -99.99 -9.99
2019/07/21 16:24 EDT    0.62   1.41    9  218   14  82.8  69.8 1006.6 31.4  1.023 -99.9 -99.99 -9.99
2019/07/21 16:30 EDT    0.60   1.42    9  213   10  83.7  69.6 1006.7 31.4  1.023 -99.9 -99.99 -9.99
2019/07/21 16:36 EDT    0.58   1.35    9  210   11  83.5  69.4 1006.7 31.4  1.023 -99.9 -99.99 -9.99
2019/07/21 16:42 EDT    0.57   1.36   10  208   11  83.8  69.6 1006.7 31.4  1.023 -99.9 -99.99 -9.99
2019/07/21 16:48 EDT    0.56   1.34    9  208   12  83.1  69.6 1006.6 31.4  1.023 -99.9 -99.99 -9.99
2019/07/21 16:54 EDT    0.56   1.31   10  207   12  82.9  70.0 1006.6 31.4  1.023 -99.9 -99.99 -9.99
2019/07/21 17:00 EDT    0.56   1.28   10  211   12  83.1  69.8 1006.6 31.3  1.023 -99.9 -99.99 -9.99
2019/07/21 17:06 EDT    0.56   1.28    9  216   10  83.3  70.0 1006.6 31.3  1.023 -99.9 -99.99 -9.99
2019/07/21 17:12 EDT    0.57   1.29    8  216   11  83.5  70.0 1006.5 31.3  1.023 -99.9 -99.99 -9.99
2019/07/21 17:18 EDT    0.58   1.30    8  226   11  85.5  69.8 1006.5 31.4  1.023 -99.9 -99.99 -9.99
2019/07/21 17:24 EDT    0.59   1.30    9  229   12  87.4  70.2 1006.5 31.4  1.023 -99.9 -99.99 -9.99
2019/07/21 17:30 EDT    0.61   1.34    9  231   12  87.4  70.0 1006.5 31.3  1.023 -99.9 -99.99 -9.99
2019/07/21 17:36 EDT    0.63   1.28    9  226   11  87.6  70.0 1006.5 31.3  1.023 -99.9 -99.99 -9.99
2019/07/21 17:42 EDT    0.65   1.34    9  230   11  87.1  70.2 1006.6 31.4  1.023 -99.9 -99.99 -9.99
2019/07/21 17:48 EDT    0.67   1.40    9  230   11  87.3  70.5 1006.6 31.3  1.022 -99.9 -99.99 -9.99
2019/07/21 17:54 EDT    0.70   1.31    8  223    9  87.1  70.3 1006.6 31.3  1.022 -99.9 -99.99 -9.99
2019/07/21 18:00 EDT    0.73   1.40    6  223    7  86.4  70.5 1006.7 31.3  1.023 -99.9 -99.99 -9.99
2019/07/21 18:06 EDT    0.75   1.45    5  215    8  85.3  70.3 1006.7 31.3  1.023 -99.9 -99.99 -9.99
2019/07/21 18:12 EDT    0.79   1.44    8  236   11  85.1  70.7 1006.7 31.3  1.022 -99.9 -99.99 -9.99
2019/07/21 18:18 EDT    0.82   1.52    9  236   11  87.1  70.7 1006.8 31.3  1.022 -99.9 -99.99 -9.99
2019/07/21 18:24 EDT    0.85   1.49    6  221   10  84.7  70.5 1006.9 31.3  1.022 -99.9 -99.99 -9.99
2019/07/21 18:30 EDT    0.89   1.55    7  218    9  84.0  70.7 1007.0 31.3  1.022 -99.9 -99.99 -9.99
2019/07/21 18:36 EDT    0.92   1.58    7  218    9  81.7  70.7 1007.1 31.4  1.023 -99.9 -99.99 -9.99
2019/07/21 18:42 EDT    0.96   1.63    7  217    8  80.6  70.5 1007.2 31.3  1.023 -99.9 -99.99 -9.99
2019/07/21 18:48 EDT    1.00   1.66    6  215    7  80.2  70.7 1007.2 31.3  1.022 -99.9 -99.99 -9.99
2019/07/21 18:54 EDT    1.04   1.75    7  207   10  79.7  70.9 1007.2 31.3  1.022 -99.9 -99.99 -9.99
2019/07/21 19:00 EDT    1.08   1.80    7  195   10  80.4  70.7 1007.2 31.3  1.022 -99.9 -99.99 -9.99
2019/07/21 19:06 EDT    1.12   1.77    6  197    7  80.2  70.7 1007.4 31.3  1.022 -99.9 -99.99 -9.99
2019/07/21 19:12 EDT    1.16   1.93    7  205    9  80.2  70.7 1007.5 31.3  1.022 -99.9 -99.99 -9.99
2019/07/21 19:18 EDT    1.20   1.88    6  205    9  79.5  70.7 1007.6 31.3  1.022 -99.9 -99.99 -9.99
2019/07/21 19:24 EDT    1.25   1.95    7  206    8  78.8  71.1 1007.6 31.3  1.022 -99.9 -99.99 -9.99
2019/07/21 19:30 EDT    1.29   2.03    6  209    8  78.1  70.7 1007.6 31.3  1.022 -99.9 -99.99 -9.99
2019/07/21 19:36 EDT    1.34   1.98    7  204    8  77.7  70.9 1007.6 31.3  1.022 -99.9 -99.99 -9.99
2019/07/21 19:42 EDT    1.38   2.09    5  194    8  77.2  70.9 1007.6 31.3  1.022 -99.9 -99.99 -9.99
2019/07/21 19:48 EDT    1.43   2.13    4  192    6  77.2  70.7 1007.6 31.3  1.022 -99.9 -99.99 -9.99
2019/07/21 19:54 EDT    1.48   2.19    4  185    5  77.2  71.1 1007.7 31.3  1.022 -99.9 -99.99 -9.99
2019/07/21 20:00 EDT    1.53   2.24    4  172    8  77.9  71.1 1007.8 31.3  1.022 -99.9 -99.99 -9.99
2019/07/21 20:06 EDT    1.58   2.27    7  189    8  78.8  71.1 1007.7 31.3  1.022 -99.9 -99.99 -9.99
2019/07/21 20:12 EDT    1.63   2.36    6  178    8  79.7  71.1 1007.7 31.3  1.022 -99.9 -99.99 -9.99
2019/07/21 20:18 EDT    1.68   2.38    5  180    8  79.5  71.2 1007.7 31.2  1.022 -99.9 -99.99 -9.99
2019/07/21 20:24 EDT    1.73   2.44    4  180    6  79.3  71.2 1007.9 31.3  1.022 -99.9 -99.99 -9.99
2019/07/21 20:30 EDT    1.79   2.47    4  184    6  79.0  71.1 1008.0 31.3  1.022 -99.9 -99.99 -9.99
2019/07/21 20:36 EDT    1.84   2.51    6  183    7  79.0  70.9 1008.1 31.3  1.022 -99.9 -99.99 -9.99
2019/07/21 20:42 EDT    1.90   2.59    6  190    7  78.6  70.9 1008.1 31.3  1.022 -99.9 -99.99 -9.99
2019/07/21 20:48 EDT    1.96   2.65    6  205    6  78.4  70.9 1008.2 31.3  1.022 -99.9 -99.99 -9.99
2019/07/21 20:54 EDT    2.01   2.74    0  241    3  78.8  70.9 1008.4 31.3  1.022 -99.9 -99.99 -9.99
2019/07/21 21:00 EDT    2.07   2.79    2  200    5  78.8  70.9 1008.4 31.0  1.022 -99.9 -99.99 -9.99
2019/07/21 21:06 EDT    2.13   2.82    4  212    5  78.8  71.1 1008.5 31.2  1.022 -99.9 -99.99 -9.99
2019/07/21 21:12 EDT    2.19   2.87    4  207    5  78.3  70.9 1008.5 31.3  1.022 -99.9 -99.99 -9.99
2019/07/21 21:18 EDT    2.25   2.93    3  206    5  78.3  70.9 1008.7 31.3  1.022 -99.9 -99.99 -9.99
2019/07/21 21:24 EDT    2.30   2.98    1  151    4  78.4  71.1 1008.7 31.2  1.022 -99.9 -99.99 -9.99
2019/07/21 21:30 EDT    2.36   3.03    3  182    5  78.1  70.9 1008.7 31.3  1.022 -99.9 -99.99 -9.99
2019/07/21 21:36 EDT    2.42   3.05    5  181    5  77.5  71.1 1008.7 31.3  1.022 -99.9 -99.99 -9.99
2019/07/21 21:42 EDT    2.48   3.17    1  193    2  77.2  70.9 1008.7 31.3  1.022 -99.9 -99.99 -9.99
2019/07/21 21:48 EDT    2.54   3.20    1  127    1  77.2  70.9 1008.7 31.3  1.022 -99.9 -99.99 -9.99
2019/07/21 21:54 EDT    2.60   3.24    1  120    1  77.5  71.1 1008.6 31.2  1.022 -99.9 -99.99 -9.99
2019/07/21 22:00 EDT    2.65   3.36    1   81    1  77.9  71.1 1008.6 31.3  1.022 -99.9 -99.99 -9.99
2019/07/21 22:06 EDT    2.71   3.35    1   64    1  78.3  70.9 1008.6 31.2  1.022 -99.9 -99.99 -9.99
2019/07/21 22:12 EDT    2.76   3.41    2   30    4  78.6  70.9 1008.8 31.2  1.022 -99.9 -99.99 -9.99
2019/07/21 22:18 EDT    2.81   3.50    3   17    4  79.3  71.1 1008.9 31.2  1.022 -99.9 -99.99 -9.99
2019/07/21 22:24 EDT    2.86   3.49    0  346    1  80.2  70.9 1009.0 31.2  1.022 -99.9 -99.99 -9.99
2019/07/21 22:30 EDT    2.91   3.59 -999 -999 -999  80.4  70.9 1009.1 31.2  1.022 -99.9 -99.99 -9.99
2019/07/21 22:36 EDT    2.96   3.62    2  295    5  79.9  70.9 1009.2 31.3  1.022 -99.9 -99.99 -9.99
2019/07/21 22:42 EDT    3.00   3.60    4  228    5  77.7  70.9 1009.2 31.3  1.022 -99.9 -99.99 -9.99
2019/07/21 22:48 EDT    3.04   3.70    3  216    5  77.2  70.9 1009.3 31.3  1.022 -99.9 -99.99 -9.99
2019/07/21 22:54 EDT    3.08   3.70 -999 -999 -999  77.2  70.9 1009.2 31.2  1.022 -99.9 -99.99 -9.99
2019/07/21 23:00 EDT    3.12   3.71    1  154    1  77.0  70.9 1009.2 31.2  1.022 -99.9 -99.99 -9.99
2019/07/21 23:06 EDT    3.15   3.80    0  165    1  77.2  70.7 1009.2 31.1  1.022 -99.9 -99.99 -9.99
2019/07/21 23:12 EDT    3.18   3.79    0  162    1  77.4  70.7 1009.1 31.2  1.022 -99.9 -99.99 -9.99
2019/07/21 23:18 EDT    3.21   3.86    0  171    1  77.5  70.5 1009.1 31.3  1.022 -99.9 -99.99 -9.99
2019/07/21 23:24 EDT    3.23   3.87    1  187    1  77.5  70.7 1009.1 31.3  1.022 -99.9 -99.99 -9.99
2019/07/21 23:30 EDT    3.25   3.87 -999 -999 -999  77.4  70.3 1009.1 31.3  1.023 -99.9 -99.99 -9.99
2019/07/21 23:36 EDT    3.26   3.93 -999 -999 -999  77.5  68.2 1009.1 31.4  1.023 -99.9 -99.99 -9.99
2019/07/21 23:42 EDT    3.27   3.90 -999 -999 -999  77.5  67.6 1009.2 31.6  1.023 -99.9 -99.99 -9.99
2019/07/21 23:48 EDT    3.28   3.96    0  221    1  77.7  66.7 1009.4 31.6  1.023 -99.9 -99.99 -9.99
2019/07/21 23:54 EDT    3.28   3.95    1  271    1  78.4  66.4 1009.5 31.6  1.023 -99.9 -99.99 -9.99
2019/07/22 00:00 EDT    3.28   3.98    1  227    1  78.3  65.7 1009.4 31.7  1.024 -99.9 -99.99 -9.99
2019/07/22 00:06 EDT    3.27   3.98    2  242    2  77.9  65.3 1009.6 31.7  1.024 -99.9 -99.99 -9.99
2019/07/22 00:12 EDT    3.26   3.95    1  249    2  78.3  65.1 1009.7 31.7  1.024 -99.9 -99.99 -9.99
2019/07/22 00:18 EDT    3.25   3.92    1  272    2  78.3  64.8 1009.8 31.8  1.024 -99.9 -99.99 -9.99
2019/07/22 00:24 EDT    3.23   3.92    1  342    4  78.6  64.8 1009.7 31.8  1.024 -99.9 -99.99 -9.99
2019/07/22 00:30 EDT    3.20   3.90    4  330    6  79.9  65.3 1009.7 31.8  1.024 -99.9 -99.99 -9.99
2019/07/22 00:36 EDT    3.18   3.90    3  335    6  82.0  67.1 1009.6 31.8  1.023 -99.9 -99.99 -9.99
2019/07/22 00:42 EDT    3.15   3.86    3  337    6  82.4  66.4 1009.6 31.8  1.024 -99.9 -99.99 -9.99
2019/07/22 00:48 EDT    3.11   3.89    4  347    5  82.0  67.8 1009.6 31.6  1.023 -99.9 -99.99 -9.99
2019/07/22 00:54 EDT    3.07   3.87    3  351    6  81.9  66.4 1009.6 31.5  1.023 -99.9 -99.99 -9.99
2019/07/22 01:00 EDT    3.03   3.80    4    2    7  81.3  68.0 1009.6 31.6  1.023 -99.9 -99.99 -9.99
2019/07/22 01:06 EDT    2.98   3.75    3  342    7  81.1  67.6 1009.6 31.6  1.023 -99.9 -99.99 -9.99
2019/07/22 01:12 EDT    2.93   3.63 -999 -999 -999  81.0  68.2 1009.6 31.5  1.023 -99.9 -99.99 -9.99
2019/07/22 01:18 EDT    2.87   3.48    5  328    9  81.0  68.2 1009.6 31.5  1.023 -99.9 -99.99 -9.99
2019/07/22 01:24 EDT    2.81   3.40    4  330    8  80.8  68.7 1009.6 31.5  1.023 -99.9 -99.99 -9.99
2019/07/22 01:30 EDT    2.75   3.40    5  330    8  80.8  69.1 1009.6 31.5  1.023 -99.9 -99.99 -9.99
2019/07/22 01:36 EDT    2.69   3.37    6  330    9  80.4  68.9 1009.7 31.5  1.023 -99.9 -99.99 -9.99
2019/07/22 01:42 EDT    2.62   3.34    5  344   10  80.2  69.3 1009.7 31.4  1.023 -99.9 -99.99 -9.99
2019/07/22 01:48 EDT    2.55   3.23    5  335   11  80.1  69.1 1009.7 31.5  1.023 -99.9 -99.99 -9.99
2019/07/22 01:54 EDT    2.48   3.11    6  342   12  80.2  69.3 1009.8 31.4  1.023 -99.9 -99.99 -9.99
2019/07/22 02:00 EDT    2.40   3.04    7  340   12  80.4  69.8 1009.8 31.3  1.023 -99.9 -99.99 -9.99
2019/07/22 02:06 EDT    2.32   2.92    7  343   12  80.2  69.6 1009.8 31.4  1.023 -99.9 -99.99 -9.99
2019/07/22 02:12 EDT    2.24   2.77    5  337    9  80.2  69.8 1009.8 31.4  1.023 -99.9 -99.99 -9.99
2019/07/22 02:18 EDT    2.16   2.74    6  351    9  80.4  69.4 1009.8 31.4  1.023 -99.9 -99.99 -9.99
2019/07/22 02:24 EDT    2.08   2.68    5  353    8  80.2  69.8 1009.8 30.9  1.022 -99.9 -99.99 -9.99
2019/07/22 02:30 EDT    1.99   2.67    4  332    8  80.1  70.0 1009.8 30.5  1.022 -99.9 -99.99 -9.99
2019/07/22 02:36 EDT    1.91   2.59    4  338    8  80.1  70.0 1009.9 31.3  1.023 -99.9 -99.99 -9.99
2019/07/22 02:42 EDT    1.82   2.45    5  346    6  79.9  70.0 1009.9 31.3  1.023 -99.9 -99.99 -9.99
2019/07/22 02:48 EDT    1.74   2.36    4  342    7  79.5  70.3 1009.9 31.2  1.022 -99.9 -99.99 -9.99
2019/07/22 02:54 EDT    1.65   2.31    3  329    4  79.2  69.8 1009.9 31.4  1.023 -99.9 -99.99 -9.99
2019/07/22 03:00 EDT    1.57   2.25    3  336    7  78.8  69.8 1009.9 31.4  1.023 -99.9 -99.99 -9.99
2019/07/22 03:06 EDT    1.48   2.15    5  344    7  79.0  69.8 1009.9 31.3  1.023 -99.9 -99.99 -9.99
2019/07/22 03:12 EDT    1.40   2.07    3  358    7  79.0  69.6 1009.8 31.4  1.023 -99.9 -99.99 -9.99
2019/07/22 03:18 EDT    1.32   1.97    4  355    9  79.0  69.4 1009.8 31.5  1.023 -99.9 -99.99 -9.99
2019/07/22 03:24 EDT    1.24   1.82    4  357    9  79.0  69.4 1009.7 31.5  1.023 -99.9 -99.99 -9.99
2019/07/22 03:30 EDT    1.16   1.70    6  356    9  79.0  69.1 1009.6 31.5  1.023 -99.9 -99.99 -9.99
2019/07/22 03:36 EDT    1.08   1.48    5  353    8  79.0  69.4 1009.6 31.3  1.023 -99.9 -99.99 -9.99
2019/07/22 03:42 EDT    1.01   1.17    4  354    6  78.6  69.4 1009.5 30.9  1.022 -99.9 -99.99 -9.99
2019/07/22 03:48 EDT    0.94   1.24    4    1    7  78.6  69.3 1009.4 31.4  1.023 -99.9 -99.99 -9.99
2019/07/22 03:54 EDT    0.88   1.30    5   11    7  78.4  68.2 1009.5 31.3  1.023 -99.9 -99.99 -9.99
2019/07/22 04:00 EDT    0.81   1.35    3   14    8  78.4  68.0 1009.4 31.6  1.023 -99.9 -99.99 -9.99
2019/07/22 04:06 EDT    0.76   1.49    4    8    8  78.3  68.0 1009.5 31.5  1.023 -99.9 -99.99 -9.99
2019/07/22 04:12 EDT    0.70   1.47    5    7    8  78.3  68.0 1009.6 31.5  1.023 -99.9 -99.99 -9.99
2019/07/22 04:18 EDT    0.65   1.33    5   15    8  78.3  68.2 1009.7 31.5  1.023 -99.9 -99.99 -9.99
2019/07/22 04:24 EDT    0.61   1.16    5   18    8  78.1  68.7 1009.7 31.4  1.023 -99.9 -99.99 -9.99
2019/07/22 04:30 EDT    0.57   1.00    4   27    6  77.9  68.5 1009.9 31.4  1.023 -99.9 -99.99 -9.99
2019/07/22 04:36 EDT    0.53   1.13    4   32    5  77.5  68.2 1009.8 31.3  1.023 -99.9 -99.99 -9.99
2019/07/22 04:42 EDT    0.50   1.14    4   10    7  77.5  68.4 1009.9 31.4  1.023 -99.9 -99.99 -9.99
2019/07/22 04:48 EDT    0.47   0.96    6    7    8  77.7  68.5 1009.9 31.4  1.023 -99.9 -99.99 -9.99
2019/07/22 04:54 EDT    0.45   1.28    5    7    7  77.7  68.0 1010.0 31.3  1.023 -99.9 -99.99 -9.99
2019/07/22 05:00 EDT    0.43   1.36    3    5    7  77.5  67.8 1010.2 31.4  1.023 -99.9 -99.99 -9.99
2019/07/22 05:06 EDT    0.42   1.20    2   21    6  77.5  68.0 1010.3 31.5  1.023 -99.9 -99.99 -9.99
2019/07/22 05:12 EDT    0.41   1.29 -999 -999 -999  77.2  68.4 1010.4 31.3  1.023 -99.9 -99.99 -9.99
2019/07/22 05:18 EDT    0.41   1.11    2  349    4  77.4  68.9 1010.4 31.4  1.023 -99.9 -99.99 -9.99
2019/07/22 05:24 EDT    0.40   0.90    3   18    4  77.5  68.7 1010.3 31.4  1.023 -99.9 -99.99 -9.99
2019/07/22 05:30 EDT    0.41 -99.99 -999 -999 -999 -99.9 -99.9 -999.9 -9.9 -9.999 -99.9 -99.99 -9.99
2019/07/22 05:36 EDT    0.41 -99.99 -999 -999 -999 -99.9 -99.9 -999.9 -9.9 -9.999 -99.9 -99.99 -9.99
2019/07/22 05:42 EDT    0.42 -99.99 -999 -999 -999 -99.9 -99.9 -999.9 -9.9 -9.999 -99.9 -99.99 -9.99
2019/07/22 05:48 EDT    0.44 -99.99 -999 -999 -999 -99.9 -99.9 -999.9 -9.9 -9.999 -99.9 -99.99 -9.99
2019/07/22 05:54 EDT    0.45 -99.99 -999 -999 -999 -99.9 -99.9 -999.9 -9.9 -9.999 -99.9 -99.99 -9.99
2019/07/22 06:00 EDT    0.47 -99.99 -999 -999 -999 -99.9 -99.9 -999.9 -9.9 -9.999 -99.9 -99.99 -9.99
2019/07/22 06:06 EDT    0.49 -99.99 -999 -999 -999 -99.9 -99.9 -999.9 -9.9 -9.999 -99.9 -99.99 -9.99
2019/07/22 06:12 EDT    0.51 -99.99 -999 -999 -999 -99.9 -99.9 -999.9 -9.9 -9.999 -99.9 -99.99 -9.99
2019/07/22 06:18 EDT    0.54 -99.99 -999 -999 -999 -99.9 -99.9 -999.9 -9.9 -9.999 -99.9 -99.99 -9.99
2019/07/22 06:24 EDT    0.57 -99.99 -999 -999 -999 -99.9 -99.9 -999.9 -9.9 -9.999 -99.9 -99.99 -9.99
2019/07/22 06:30 EDT    0.59 -99.99 -999 -999 -999 -99.9 -99.9 -999.9 -9.9 -9.999 -99.9 -99.99 -9.99
2019/07/22 06:36 EDT    0.62 -99.99 -999 -999 -999 -99.9 -99.9 -999.9 -9.9 -9.999 -99.9 -99.99 -9.99
2019/07/22 06:42 EDT    0.65 -99.99 -999 -999 -999 -99.9 -99.9 -999.9 -9.9 -9.999 -99.9 -99.99 -9.99
2019/07/22 06:48 EDT    0.69 -99.99 -999 -999 -999 -99.9 -99.9 -999.9 -9.9 -9.999 -99.9 -99.99 -9.99
2019/07/22 06:54 EDT    0.72 -99.99 -999 -999 -999 -99.9 -99.9 -999.9 -9.9 -9.999 -99.9 -99.99 -9.99
2019/07/22 07:00 EDT    0.76 -99.99 -999 -999 -999 -99.9 -99.9 -999.9 -9.9 -9.999 -99.9 -99.99 -9.99
2019/07/22 07:06 EDT    0.79 -99.99 -999 -999 -999 -99.9 -99.9 -999.9 -9.9 -9.999 -99.9 -99.99 -9.99
2019/07/22 07:12 EDT    0.83 -99.99 -999 -999 -999 -99.9 -99.9 -999.9 -9.9 -9.999 -99.9 -99.99 -9.99
2019/07/22 07:18 EDT    0.87 -99.99 -999 -999 -999 -99.9 -99.9 -999.9 -9.9 -9.999 -99.9 -99.99 -9.99
2019/07/22 07:24 EDT    0.91 -99.99 -999 -999 -999 -99.9 -99.9 -999.9 -9.9 -9.999 -99.9 -99.99 -9.99
2019/07/22 07:30 EDT    0.95 -99.99 -999 -999 -999 -99.9 -99.9 -999.9 -9.9 -9.999 -99.9 -99.99 -9.99
2019/07/22 07:36 EDT    0.99 -99.99 -999 -999 -999 -99.9 -99.9 -999.9 -9.9 -9.999 -99.9 -99.99 -9.99
2019/07/22 07:42 EDT    1.03 -99.99 -999 -999 -999 -99.9 -99.9 -999.9 -9.9 -9.999 -99.9 -99.99 -9.99
2019/07/22 07:48 EDT    1.08 -99.99 -999 -999 -999 -99.9 -99.9 -999.9 -9.9 -9.999 -99.9 -99.99 -9.99
2019/07/22 07:54 EDT    1.12 -99.99 -999 -999 -999 -99.9 -99.9 -999.9 -9.9 -9.999 -99.9 -99.99 -9.99
2019/07/22 08:00 EDT    1.17 -99.99 -999 -999 -999 -99.9 -99.9 -999.9 -9.9 -9.999 -99.9 -99.99 -9.99
2019/07/22 08:06 EDT    1.21 -99.99 -999 -999 -999 -99.9 -99.9 -999.9 -9.9 -9.999 -99.9 -99.99 -9.99
2019/07/22 08:12 EDT    1.26 -99.99 -999 -999 -999 -99.9 -99.9 -999.9 -9.9 -9.999 -99.9 -99.99 -9.99
2019/07/22 08:18 EDT    1.31 -99.99 -999 -999 -999 -99.9 -99.9 -999.9 -9.9 -9.999 -99.9 -99.99 -9.99
2019/07/22 08:24 EDT    1.36 -99.99 -999 -999 -999 -99.9 -99.9 -999.9 -9.9 -9.999 -99.9 -99.99 -9.99
2019/07/22 08:30 EDT    1.41 -99.99 -999 -999 -999 -99.9 -99.9 -999.9 -9.9 -9.999 -99.9 -99.99 -9.99
2019/07/22 08:36 EDT    1.47 -99.99 -999 -999 -999 -99.9 -99.9 -999.9 -9.9 -9.999 -99.9 -99.99 -9.99
2019/07/22 08:42 EDT    1.52 -99.99 -999 -999 -999 -99.9 -99.9 -999.9 -9.9 -9.999 -99.9 -99.99 -9.99
2019/07/22 08:48 EDT    1.58 -99.99 -999 -999 -999 -99.9 -99.9 -999.9 -9.9 -9.999 -99.9 -99.99 -9.99
2019/07/22 08:54 EDT    1.63 -99.99 -999 -999 -999 -99.9 -99.9 -999.9 -9.9 -9.999 -99.9 -99.99 -9.99
2019/07/22 09:00 EDT    1.69 -99.99 -999 -999 -999 -99.9 -99.9 -999.9 -9.9 -9.999 -99.9 -99.99 -9.99
2019/07/22 09:06 EDT    1.75 -99.99 -999 -999 -999 -99.9 -99.9 -999.9 -9.9 -9.999 -99.9 -99.99 -9.99
2019/07/22 09:12 EDT    1.81 -99.99 -999 -999 -999 -99.9 -99.9 -999.9 -9.9 -9.999 -99.9 -99.99 -9.99
2019/07/22 09:18 EDT    1.87 -99.99 -999 -999 -999 -99.9 -99.9 -999.9 -9.9 -9.999 -99.9 -99.99 -9.99
2019/07/22 09:24 EDT    1.93 -99.99 -999 -999 -999 -99.9 -99.9 -999.9 -9.9 -9.999 -99.9 -99.99 -9.99
2019/07/22 09:30 EDT    1.99 -99.99 -999 -999 -999 -99.9 -99.9 -999.9 -9.9 -9.999 -99.9 -99.99 -9.99
2019/07/22 09:36 EDT    2.05 -99.99 -999 -999 -999 -99.9 -99.9 -999.9 -9.9 -9.999 -99.9 -99.99 -9.99
2019/07/22 09:42 EDT    2.11 -99.99 -999 -999 -999 -99.9 -99.9 -999.9 -9.9 -9.999 -99.9 -99.99 -9.99
2019/07/22 09:48 EDT    2.17 -99.99 -999 -999 -999 -99.9 -99.9 -999.9 -9.9 -9.999 -99.9 -99.99 -9.99
2019/07/22 09:54 EDT    2.23 -99.99 -999 -999 -999 -99.9 -99.9 -999.9 -9.9 -9.999 -99.9 -99.99 -9.99
2019/07/22 10:00 EDT    2.29 -99.99 -999 -999 -999 -99.9 -99.9 -999.9 -9.9 -9.999 -99.9 -99.99 -9.99
2019/07/22 10:06 EDT    2.35 -99.99 -999 -999 -999 -99.9 -99.9 -999.9 -9.9 -9.999 -99.9 -99.99 -9.99
2019/07/22 10:12 EDT    2.41 -99.99 -999 -999 -999 -99.9 -99.9 -999.9 -9.9 -9.999 -99.9 -99.99 -9.99
2019/07/22 10:18 EDT    2.47 -99.99 -999 -999 -999 -99.9 -99.9 -999.9 -9.9 -9.999 -99.9 -99.99 -9.99
2019/07/22 10:24 EDT    2.53 -99.99 -999 -999 -999 -99.9 -99.9 -999.9 -9.9 -9.999 -99.9 -99.99 -9.99
2019/07/22 10:30 EDT    2.59 -99.99 -999 -999 -999 -99.9 -99.9 -999.9 -9.9 -9.999 -99.9 -99.99 -9.99
2019/07/22 10:36 EDT    2.65 -99.99 -999 -999 -999 -99.9 -99.9 -999.9 -9.9 -9.999 -99.9 -99.99 -9.99
2019/07/22 10:42 EDT    2.70 -99.99 -999 -999 -999 -99.9 -99.9 -999.9 -9.9 -9.999 -99.9 -99.99 -9.99
2019/07/22 10:48 EDT    2.75 -99.99 -999 -999 -999 -99.9 -99.9 -999.9 -9.9 -9.999 -99.9 -99.99 -9.99
2019/07/22 10:54 EDT    2.80 -99.99 -999 -999 -999 -99.9 -99.9 -999.9 -9.9 -9.999 -99.9 -99.99 -9.99
2019/07/22 11:00 EDT    2.85 -99.99 -999 -999 -999 -99.9 -99.9 -999.9 -9.9 -9.999 -99.9 -99.99 -9.99
2019/07/22 11:06 EDT    2.90 -99.99 -999 -999 -999 -99.9 -99.9 -999.9 -9.9 -9.999 -99.9 -99.99 -9.99
2019/07/22 11:12 EDT    2.94 -99.99 -999 -999 -999 -99.9 -99.9 -999.9 -9.9 -9.999 -99.9 -99.99 -9.99
2019/07/22 11:18 EDT    2.99 -99.99 -999 -999 -999 -99.9 -99.9 -999.9 -9.9 -9.999 -99.9 -99.99 -9.99
2019/07/22 11:24 EDT    3.02 -99.99 -999 -999 -999 -99.9 -99.9 -999.9 -9.9 -9.999 -99.9 -99.99 -9.99
2019/07/22 11:30 EDT    3.06 -99.99 -999 -999 -999 -99.9 -99.9 -999.9 -9.9 -9.999 -99.9 -99.99 -9.99
2019/07/22 11:36 EDT    3.09 -99.99 -999 -999 -999 -99.9 -99.9 -999.9 -9.9 -9.999 -99.9 -99.99 -9.99

Revised: 08/08/2018
NOAA / National Ocean Service
Web site owner: Center for Operational Oceanographic Products and Services